Ambridge, PA

8:09 PM EDT on May 28, 2015 (GMT -0400)
Crestmont Village - Hopewell Twp | | Change Station
CLOSE
Current Station
Personal Weather Station
Location: Aliquippa, PA
Elevation: 1192 ft
Nearby Weather Stations

Elev 1192 ft 40.59 °N, 80.27 °W | Updated 7 minutes ago

Clear
Clear
78.3 °F
Feels Like 79 °F
N
3.7
Wind Variable Wind from NE

Today
High -- | Low -- °F
--% Chance of Precip.
Yesterday
High -- | Low -- °F
Precip. -- in
5:54 AM 8:42 PM
Waxing Gibbous, 79% visible
Pressure 30.22 in
Visibility 10.0 miles
Clouds Few 5000 ft
Few 25000 ft
Heat Index 79 °F
Dew Point 55 °F
Humidity 44%
Rainfall 0.00 in
Snow Depth Not available.
UV 0 out of 12
Pollen 9.10 out of 12
Air Quality Not available.
Flu Activity Sporadic
METAR KPIT 282351Z 06004KT 10SM FEW050 FEW250 26/12 A3022 RMK AO2 SLP232 T02560117 10272 20244 55003

More Conditions Fewer Conditions

Pressure 30.22 in
Visibility 10.0 miles
Clouds Few 5000 ft
Few 25000 ft
Heat Index 79 °F
Dew Point 55 °F
Humidity 44%
Rainfall 0.00 in
Snow Depth Not available.
UV 0 out of 12
Pollen 9.10 out of 12
Air Quality Not available.
Flu Activity Sporadic
METAR KPIT 282351Z 06004KT 10SM FEW050 FEW250 26/12 A3022 RMK AO2 SLP232 T02560117 10272 20244 55003

More Conditions Fewer Conditions

10-Day Weather Forecast

Almanac

Astronomy

May. 28, 2015 Rise Set
Actual Time
Civil Twilight
Nautical Twilight
Astronomical Twilight
Moon
Length of Visible Light
Length of Day
Tomorrow will be .
, % of the Moon is Illuminated

Today's Extremes

State Highs State Lows

Community

WunderPhotos

Upload Photos

1,825,096 photos uploaded!

WunderBlogs® & News

Nearby

Air Quality

  Air Quality AQ Index Pollutant
Not available.

Snow Depth

Station Depth Elevation

Earthquake Activity

City Distance Mag. Time & Date
Minimum magnitude displayed is 2.5.

Coastal Water Temperatures

Place Temperature

Stations

Nearby Weather Stations

Station Location Temp. Windchill Dew Point Humidity Wind Precip. Elev Updated Type